Aeroporto :
LOGIN :

Iscrizione | Disclaimer

   EN    FR    IT 

 










Sommario :    VFR   VFR Marginale   IFR   IFR Intensivo   IFR Molto Intensivo
Visibilità : 
Base nubi : 
>= 8 km
>= 3000ft
5 / 8 km
1000 / 3000 ft
1500m / 5 km
500 / 1000 ft
800 / 1500m
200 / 500 ft
< 800m
< 200 ft
Simboli :   Temporali  Nebbia  Neve Forte  Precipitazioni Forti  Vento > 20 kt
SIGMETs :   Varie  Temporali  Ghiacco  Turbolenza  Onda orograficha  Ceneri Vulcaniche






- Altitudine del aeroporto : 290 ft
- Codice IATA : OSI


LDOS - Osijek

ULTIMO METAR :
  • 192230Z 34011KT CAVOK 07/01 Q1020

METARs OBSOLETI :
  • 192200Z 35007KT CAVOK 07/00 Q1020
  • 192130Z 01008KT CAVOK 06/00 Q1019
  • 192100Z 02006KT CAVOK 06/00 Q1019
  • 192030Z 36007KT CAVOK 06/01 Q1019
  • 192000Z 35006KT CAVOK 05/01 Q1019
  • 191930Z 01006KT CAVOK 06/00 Q1018

TAF TAF LDOS
Valido dal 19 a 18 ore il 20 a 18 ore UTC


191725Z 1918/2018 06005KT CAVOK TX11/2014Z TN02/2006Z
BECMG 1919/1921 34012KT
PROB30
TEMPO 1923/2004 4000 RA
BECMG 2015/2017 32005KT



MetMap, La meteo Aeronautica in un colpo d'occhio ! - Copyright ORBIFLY Dicembre 2007 - Disclaimer

ORBIFLY MET'MAP TEAM :

Programmazione e sviluppo : Alexandra Zaïnal
Concezione : Baudouin d'Aumeries
Aiuto per la programmazione : Marc-Olivier Méhu
Supporto tecnico e logistico : Manuel Goepfert
Aiuto per la traduzione : Arnaldo La Scala

Contatto : metmap@orbifly.com




FONTI E CREDITI :

   NOAA